Time;durP1;ratioP1;P1;durP2;ratioP2;P2;SDS_P1;SDS_P2;PMS_P1;PMS_P2;Temp;Humidity;BMP_temperature;BMP_pressure;BME280_temperature;BME280_humidity;BME280_pressure;Samples;Min_cycle;Max_cycle;Signal;HPM_P1;HPM_P2
2022/04/16 00:00:37;;;;;;;6.53;4.93;;;14.40;96.10;;;;;;5086995;23;20345;-73
2022/04/16 00:03:03;;;;;;;5.87;4.70;;;14.40;96.10;;;;;;5280781;23;20516;-72
2022/04/16 00:05:29;;;;;;;6.43;5.23;;;14.40;96.10;;;;;;4916283;29;21115;-72
2022/04/16 00:08:09;;;;;;;6.77;5.53;;;14.30;96.00;;;;;;4915560;29;20464;-72
2022/04/16 00:10:39;;;;;;;5.10;4.60;;;14.30;96.00;;;;;;4903394;29;20498;-72
2022/04/16 00:13:07;;;;;;;6.80;6.10;;;14.30;96.00;;;;;;4895834;29;20427;-72
2022/04/16 00:15:33;;;;;;;5.43;4.77;;;14.30;96.00;;;;;;4914366;29;20449;-72
2022/04/16 00:17:59;;;;;;;9.70;5.80;;;14.30;96.00;;;;;;4930235;29;20752;-73
2022/04/16 00:20:28;;;;;;;6.37;5.57;;;14.30;96.00;;;;;;4914329;29;20608;-72
2022/04/16 00:22:57;;;;;;;6.23;5.60;;;14.30;96.00;;;;;;4906154;29;20433;-72
2022/04/16 00:25:26;;;;;;;7.10;5.77;;;14.30;96.00;;;;;;4929628;29;20421;-71
2022/04/16 00:27:52;;;;;;;5.90;5.30;;;14.30;96.00;;;;;;4910196;29;20565;-70
2022/04/16 00:30:18;;;;;;;8.60;6.80;;;14.20;96.00;;;;;;4911573;29;20457;-70
2022/04/16 00:32:45;;;;;;;7.20;5.93;;;14.20;96.00;;;;;;4893634;29;20437;-70
2022/04/16 00:35:13;;;;;;;8.63;6.50;;;14.20;96.00;;;;;;4931731;29;20476;-70
2022/04/16 00:37:39;;;;;;;7.57;6.10;;;14.20;96.10;;;;;;4917290;29;20450;-71
2022/04/16 00:40:06;;;;;;;9.10;6.50;;;14.20;96.10;;;;;;4915653;29;20460;-71
2022/04/16 00:42:38;;;;;;;7.77;6.57;;;14.20;96.10;;;;;;4917079;29;20440;-70
2022/04/16 00:45:05;;;;;;;7.70;6.03;;;14.20;96.20;;;;;;4931538;29;20492;-70
2022/04/16 00:47:36;;;;;;;8.27;6.97;;;14.20;96.20;;;;;;4931134;29;20990;-70
2022/04/16 00:50:08;;;;;;;8.77;6.90;;;14.20;96.20;;;;;;4915086;29;20535;-71
2022/04/16 00:52:35;;;;;;;9.17;6.10;;;14.10;96.20;;;;;;4916858;29;20504;-70
2022/04/16 00:55:05;;;;;;;8.03;6.40;;;14.10;96.20;;;;;;4916913;29;20425;-70
2022/04/16 00:57:33;;;;;;;8.13;7.13;;;14.10;96.20;;;;;;4915902;29;20453;-71
2022/04/16 01:00:04;;;;;;;7.50;6.60;;;14.10;96.30;;;;;;4900978;29;20488;-70
2022/04/16 01:02:30;;;;;;;7.27;6.27;;;14.10;96.30;;;;;;4931248;29;20437;-70
2022/04/16 01:04:58;;;;;;;9.73;7.33;;;14.10;96.30;;;;;;4915288;29;20417;-71
2022/04/16 01:07:25;;;;;;;7.73;6.40;;;14.10;96.40;;;;;;4915524;29;20469;-71
2022/04/16 01:09:53;;;;;;;9.17;6.80;;;14.00;96.30;;;;;;4916547;29;21089;-71
2022/04/16 01:12:19;;;;;;;10.20;7.80;;;14.00;96.40;;;;;;4916469;29;20505;-71
2022/04/16 01:14:49;;;;;;;8.60;7.07;;;14.10;96.40;;;;;;4915396;29;20456;-71
2022/04/16 01:17:15;;;;;;;8.50;6.83;;;14.00;96.40;;;;;;4916412;29;20436;-71
2022/04/16 01:19:42;;;;;;;7.67;6.80;;;14.00;96.40;;;;;;4915376;29;20454;-70
2022/04/16 01:22:13;;;;;;;10.30;6.87;;;14.00;96.50;;;;;;4930538;29;20434;-70
2022/04/16 01:24:47;;;;;;;9.37;7.33;;;14.00;96.50;;;;;;4899404;29;20467;-70
2022/04/16 01:27:13;;;;;;;10.10;7.33;;;14.00;96.50;;;;;;4915028;29;20453;-70
2022/04/16 01:29:41;;;;;;;8.50;7.33;;;14.00;96.50;;;;;;4911941;29;21079;-70
2022/04/16 01:32:10;;;;;;;8.70;7.70;;;14.00;96.50;;;;;;4911901;29;20444;-70
2022/04/16 01:34:36;;;;;;;8.87;7.97;;;14.00;96.60;;;;;;4912321;29;20457;-70
2022/04/16 01:37:02;;;;;;;10.37;8.40;;;14.00;96.60;;;;;;4917838;29;20452;-70
2022/04/16 01:39:33;;;;;;;9.20;7.50;;;13.90;96.60;;;;;;4925083;29;20439;-70
2022/04/16 01:41:59;;;;;;;11.27;8.13;;;13.90;96.60;;;;;;4915046;29;20628;-71
2022/04/16 01:44:30;;;;;;;8.17;7.37;;;13.90;96.60;;;;;;4915511;29;20446;-70
2022/04/16 01:46:57;;;;;;;8.97;8.07;;;13.90;96.60;;;;;;4930522;29;20870;-70
2022/04/16 01:49:22;;;;;;;10.07;8.00;;;13.80;96.60;;;;;;4912902;29;20265;-70
2022/04/16 01:51:48;;;;;;;8.77;7.87;;;13.90;96.70;;;;;;4895900;29;20433;-70
2022/04/16 01:54:15;;;;;;;9.10;8.10;;;13.90;96.70;;;;;;4908932;29;20465;-70
2022/04/16 01:56:41;;;;;;;13.93;9.20;;;13.80;96.60;;;;;;4913719;29;20470;-71
2022/04/16 01:59:08;;;;;;;10.57;8.07;;;13.80;96.70;;;;;;4914728;29;20410;-70
2022/04/16 02:01:35;;;;;;;10.37;8.43;;;13.80;96.70;;;;;;4916039;29;20806;-70
2022/04/16 02:04:01;;;;;;;9.30;7.63;;;13.80;96.70;;;;;;4914467;29;20455;-70
2022/04/16 02:06:27;;;;;;;9.40;8.37;;;13.80;96.70;;;;;;4930288;29;20482;-70
2022/04/16 02:08:53;;;;;;;10.30;8.43;;;13.80;96.70;;;;;;4930371;29;20491;-70
2022/04/16 02:11:21;;;;;;;9.00;8.00;;;13.80;96.80;;;;;;4898414;29;20465;-70
2022/04/16 02:13:47;;;;;;;9.27;8.17;;;13.80;96.80;;;;;;4916046;29;20409;-70
2022/04/16 02:16:13;;;;;;;8.90;7.73;;;13.80;96.80;;;;;;4914282;29;21014;-70
2022/04/16 02:18:40;;;;;;;9.57;7.77;;;13.70;96.70;;;;;;4930105;29;20445;-70
2022/04/16 02:21:10;;;;;;;10.63;8.70;;;13.70;96.80;;;;;;4913843;29;20858;-70
2022/04/16 02:23:38;;;;;;;14.03;9.10;;;13.70;96.80;;;;;;4913972;29;20955;-70
2022/04/16 02:26:07;;;;;;;10.33;7.80;;;13.70;96.80;;;;;;4913653;29;20432;-70
2022/04/16 02:28:34;;;;;;;10.43;8.87;;;13.70;96.90;;;;;;4915196;29;20983;-70
2022/04/16 02:31:02;;;;;;;10.47;8.60;;;13.70;96.90;;;;;;4915273;29;20432;-70
2022/04/16 02:33:33;;;;;;;10.67;8.30;;;13.70;96.90;;;;;;4914357;29;20487;-70
2022/04/16 02:36:01;;;;;;;9.33;8.13;;;13.70;96.90;;;;;;4913408;29;20502;-71
2022/04/16 02:38:29;;;;;;;11.43;9.50;;;13.70;96.90;;;;;;4929559;29;20487;-71
2022/04/16 02:40:57;;;;;;;12.20;9.00;;;13.70;97.00;;;;;;4913819;29;21009;-71
2022/04/16 02:43:28;;;;;;;10.90;9.47;;;13.60;96.90;;;;;;4936708;29;20509;-71
2022/04/16 02:48:41;;;;;;;10.57;8.67;;;13.60;97.00;;;;;;4929116;29;20474;-71
2022/04/16 02:51:07;;;;;;;11.70;9.73;;;13.60;97.00;;;;;;4914973;29;20401;-71
2022/04/16 02:53:34;;;;;;;9.70;8.57;;;13.60;97.00;;;;;;4928837;29;20446;-70
2022/04/16 02:56:05;;;;;;;12.07;10.60;;;13.60;97.00;;;;;;4915307;29;20402;-70
2022/04/16 02:58:35;;;;;;;10.17;8.90;;;13.50;97.00;;;;;;4929529;29;20444;-71
2022/04/16 03:01:01;;;;;;;11.17;10.07;;;13.50;97.00;;;;;;4929598;29;20409;-70
2022/04/16 03:03:33;;;;;;;11.23;8.37;;;13.50;97.00;;;;;;4913263;29;20508;-70
2022/04/16 03:06:01;;;;;;;11.77;9.53;;;13.50;97.00;;;;;;4915197;29;20412;-70
2022/04/16 03:08:28;;;;;;;10.47;9.40;;;13.50;97.00;;;;;;4914854;29;20468;-70
2022/04/16 03:10:55;;;;;;;10.90;8.80;;;13.50;97.00;;;;;;4928718;29;20457;-70
2022/04/16 03:13:21;;;;;;;10.63;9.57;;;13.50;97.10;;;;;;4915332;29;20433;-70
2022/04/16 03:18:37;;;;;;;10.93;8.67;;;13.50;97.10;;;;;;4918302;29;20452;-70
2022/04/16 03:21:04;;;;;;;12.60;9.10;;;13.40;97.10;;;;;;4918436;29;20429;-71
2022/04/16 03:23:29;;;;;;;13.47;9.47;;;13.40;97.10;;;;;;4917289;29;20432;-70
2022/04/16 03:26:00;;;;;;;10.80;9.70;;;13.40;97.10;;;;;;4933040;29;20428;-70
2022/04/16 03:28:26;;;;;;;11.00;9.90;;;13.40;97.10;;;;;;4917983;29;20510;-70
2022/04/16 03:30:53;;;;;;;11.43;9.40;;;13.40;97.10;;;;;;4932684;29;20466;-71
2022/04/16 03:33:20;;;;;;;10.87;9.57;;;13.40;97.10;;;;;;4917215;29;20431;-70
2022/04/16 03:35:49;;;;;;;14.63;9.40;;;13.40;97.10;;;;;;4918214;29;20774;-70
2022/04/16 03:38:17;;;;;;;10.10;9.03;;;13.40;97.20;;;;;;4932893;29;20476;-70
2022/04/16 03:40:50;;;;;;;12.50;9.97;;;13.40;97.20;;;;;;4931973;29;20433;-71
2022/04/16 03:43:20;;;;;;;12.17;9.60;;;13.30;97.20;;;;;;4917678;29;20424;-70
2022/04/16 03:45:46;;;;;;;11.00;9.53;;;13.30;97.20;;;;;;4918284;29;20401;-70
2022/04/16 03:48:12;;;;;;;10.13;9.10;;;13.30;97.20;;;;;;4916549;29;20893;-71
2022/04/16 03:50:38;;;;;;;10.53;8.80;;;13.30;97.20;;;;;;4917881;29;20452;-71
2022/04/16 03:53:07;;;;;;;10.30;8.50;;;13.30;97.20;;;;;;4932478;29;20422;-71
2022/04/16 04:01:07;;;;;;;13.00;10.97;;;13.20;97.20;;;;;;4916660;29;20463;-71
2022/04/16 04:03:36;;;;;;;10.90;9.53;;;13.30;97.30;;;;;;4900650;29;20462;-71
2022/04/16 04:06:02;;;;;;;11.40;9.03;;;13.30;97.30;;;;;;4916248;29;20451;-71
2022/04/16 04:08:29;;;;;;;13.07;11.00;;;13.20;97.20;;;;;;4917542;29;20479;-70
2022/04/16 04:10:55;;;;;;;11.93;9.90;;;13.20;97.20;;;;;;4915969;29;20516;-70
2022/04/16 04:13:26;;;;;;;13.50;10.23;;;13.20;97.20;;;;;;4917791;29;20417;-70
2022/04/16 04:15:54;;;;;;;10.27;9.27;;;13.20;97.20;;;;;;4915729;29;20437;-71
2022/04/16 04:18:24;;;;;;;11.27;9.67;;;13.20;97.30;;;;;;4916149;29;20480;-71
2022/04/16 04:20:50;;;;;;;12.07;9.57;;;13.20;97.30;;;;;;4915680;29;20494;-70
2022/04/16 04:23:18;;;;;;;11.80;10.60;;;13.20;97.30;;;;;;4916164;29;20467;-71
2022/04/16 04:25:45;;;;;;;11.10;9.90;;;13.20;97.30;;;;;;4927435;29;20422;-70
2022/04/16 04:28:11;;;;;;;12.07;9.83;;;13.10;97.30;;;;;;4917218;29;20989;-70
2022/04/16 04:30:42;;;;;;;10.20;8.97;;;13.10;97.60;;;;;;4916935;29;20423;-71
2022/04/16 04:33:12;;;;;;;11.67;10.30;;;13.10;97.30;;;;;;4916679;29;20431;-70
2022/04/16 04:35:40;;;;;;;13.20;10.27;;;13.10;97.30;;;;;;4884565;29;20439;-70
2022/04/16 04:38:06;;;;;;;12.73;9.70;;;13.10;97.30;;;;;;4917267;29;20454;-70
2022/04/16 04:40:35;;;;;;;11.77;10.10;;;13.00;97.30;;;;;;4916853;29;20552;-70
2022/04/16 04:43:01;;;;;;;13.20;10.50;;;13.10;97.30;;;;;;4917207;29;20412;-70
2022/04/16 04:45:29;;;;;;;12.00;9.90;;;13.10;97.30;;;;;;4915249;29;20798;-71
2022/04/16 04:47:57;;;;;;;10.60;9.47;;;13.10;97.30;;;;;;4916629;29;20471;-71
2022/04/16 04:50:25;;;;;;;11.37;9.73;;;13.00;97.30;;;;;;4915293;29;20540;-70
2022/04/16 04:52:54;;;;;;;13.70;10.37;;;13.00;97.30;;;;;;4916637;29;20468;-71
2022/04/16 04:55:22;;;;;;;11.47;9.50;;;13.00;97.30;;;;;;4917277;29;21007;-71
2022/04/16 04:57:54;;;;;;;10.93;9.07;;;13.00;97.30;;;;;;4916623;29;20596;-72
2022/04/16 05:00:22;;;;;;;12.70;10.53;;;13.00;97.40;;;;;;4897557;29;20410;-71
2022/04/16 05:02:48;;;;;;;12.03;10.00;;;13.00;97.40;;;;;;4896893;29;20477;-70
2022/04/16 05:05:17;;;;;;;12.10;10.57;;;12.90;97.30;;;;;;4916063;29;20431;-71
2022/04/16 05:07:43;;;;;;;14.23;10.97;;;13.00;97.40;;;;;;4915436;29;20456;-71
2022/04/16 05:10:10;;;;;;;10.70;9.60;;;12.90;97.40;;;;;;4914626;29;20504;-71
2022/04/16 05:12:38;;;;;;;13.13;9.90;;;12.90;97.40;;;;;;4931139;29;20412;-70
2022/04/16 05:15:07;;;;;;;12.90;10.30;;;12.90;97.40;;;;;;4914848;29;20452;-70
2022/04/16 05:17:37;;;;;;;12.40;9.57;;;12.90;97.40;;;;;;4915060;29;21032;-70
2022/04/16 05:20:09;;;;;;;11.33;10.13;;;12.90;97.40;;;;;;4915514;29;20478;-70
2022/04/16 05:22:35;;;;;;;13.67;10.73;;;12.90;97.40;;;;;;4915085;29;20432;-70
2022/04/16 05:25:03;;;;;;;15.20;11.70;;;12.90;97.50;;;;;;4915725;29;20792;-71
2022/04/16 05:27:30;;;;;;;12.63;10.90;;;12.90;97.50;;;;;;4916050;29;20440;-70
2022/04/16 05:30:02;;;;;;;11.13;9.97;;;12.90;97.50;;;;;;4915309;29;20529;-71
2022/04/16 05:32:37;;;;;;;13.27;10.00;;;12.80;97.40;;;;;;4930977;29;20444;-70
2022/04/16 05:35:07;;;;;;;12.50;10.27;;;12.80;97.50;;;;;;4899139;29;20499;-70
2022/04/16 05:37:34;;;;;;;13.23;11.60;;;12.80;97.50;;;;;;4914562;29;20463;-71
2022/04/16 05:40:01;;;;;;;14.20;10.80;;;12.80;97.50;;;;;;4914600;29;20678;-71
2022/04/16 05:42:29;;;;;;;11.80;10.60;;;12.80;97.50;;;;;;4914556;29;20815;-70
2022/04/16 05:45:03;;;;;;;14.27;11.63;;;12.80;97.60;;;;;;4916111;29;20491;-72
2022/04/16 05:47:29;;;;;;;13.07;11.67;;;12.80;97.60;;;;;;4914543;29;20459;-71
2022/04/16 05:49:55;;;;;;;12.47;10.90;;;12.80;97.60;;;;;;4914513;29;20410;-73
2022/04/16 05:52:22;;;;;;;14.27;10.67;;;12.80;97.60;;;;;;4899055;29;20856;-69
2022/04/16 05:54:54;;;;;;;13.23;10.93;;;12.70;97.70;;;;;;4930642;29;21020;-69
2022/04/16 05:57:26;;;;;;;12.47;10.30;;;12.70;97.70;;;;;;4914707;29;20449;-71
2022/04/16 05:59:55;;;;;;;16.20;11.50;;;12.70;97.70;;;;;;4914446;29;20439;-71
2022/04/16 06:02:21;;;;;;;15.40;12.03;;;12.70;97.70;;;;;;4909835;29;20471;-71
2022/04/16 06:04:47;;;;;;;14.07;11.20;;;12.70;97.80;;;;;;4904582;29;20424;-71
2022/04/16 06:07:16;;;;;;;12.77;11.40;;;12.70;97.80;;;;;;4911772;29;20452;-71
2022/04/16 06:09:44;;;;;;;13.60;11.30;;;12.70;97.90;;;;;;4909158;29;20438;-71
2022/04/16 06:12:15;;;;;;;12.17;10.60;;;12.70;97.80;;;;;;4912440;29;20428;-71
2022/04/16 06:14:43;;;;;;;13.90;11.50;;;12.70;97.90;;;;;;4911891;29;20941;-71
2022/04/16 06:17:12;;;;;;;13.97;11.87;;;12.70;97.90;;;;;;4913146;29;20551;-72
2022/04/16 06:19:38;;;;;;;14.53;12.17;;;12.70;98.00;;;;;;4912146;29;21014;-71
2022/04/16 06:22:07;;;;;;;15.60;12.57;;;12.70;98.00;;;;;;4894427;29;20498;-71
2022/04/16 06:24:33;;;;;;;18.40;12.80;;;12.70;98.10;;;;;;4911905;29;20426;-71
2022/04/16 06:26:59;;;;;;;16.60;12.53;;;12.70;98.20;;;;;;4913003;29;20198;-71
2022/04/16 06:29:25;;;;;;;15.27;13.67;;;12.70;98.20;;;;;;4911734;29;20976;-71
2022/04/16 06:31:56;;;;;;;16.50;12.93;;;12.60;98.30;;;;;;4911328;29;20181;-71
2022/04/16 06:34:24;;;;;;;16.43;12.97;;;12.70;98.30;;;;;;4911508;29;20510;-71
2022/04/16 06:36:53;;;;;;;16.73;13.17;;;12.70;98.40;;;;;;4911937;29;20485;-72
2022/04/16 06:39:21;;;;;;;15.00;13.03;;;12.60;98.40;;;;;;4911543;29;21085;-71
2022/04/16 06:41:47;;;;;;;17.73;12.70;;;12.70;98.50;;;;;;4895064;29;20993;-71
2022/04/16 06:44:15;;;;;;;16.67;13.40;;;12.70;98.50;;;;;;4895755;29;20472;-71
2022/04/16 06:46:41;;;;;;;14.50;11.93;;;12.70;98.60;;;;;;4918375;29;20898;-71
2022/04/16 06:49:10;;;;;;;14.57;12.40;;;12.70;98.60;;;;;;4933474;29;20474;-71
2022/04/16 06:51:38;;;;;;;18.20;14.77;;;12.60;98.60;;;;;;4917279;29;20572;-71
2022/04/16 06:54:06;;;;;;;16.20;13.47;;;12.70;99.10;;;;;;4915645;29;20436;-71
2022/04/16 06:56:34;;;;;;;15.20;13.30;;;12.60;98.80;;;;;;4915160;29;20526;-71
2022/04/16 06:59:05;;;;;;;15.70;12.87;;;12.60;98.80;;;;;;4915334;29;20246;-71
2022/04/16 07:01:31;;;;;;;14.83;12.80;;;12.70;98.80;;;;;;4915087;29;21071;-71
2022/04/16 07:03:57;;;;;;;17.40;13.03;;;12.70;98.80;;;;;;4915093;29;20462;-70
2022/04/16 07:06:25;;;;;;;16.07;13.20;;;12.70;98.90;;;;;;4899696;29;20436;-71
2022/04/16 07:08:57;;;;;;;14.60;13.10;;;12.70;98.90;;;;;;4916519;29;20494;-72
2022/04/16 07:11:26;;;;;;;18.30;13.77;;;12.70;98.90;;;;;;4899441;29;20439;-71
2022/04/16 07:13:54;;;;;;;16.60;12.67;;;12.60;98.90;;;;;;4914686;29;20436;-71
2022/04/16 07:16:22;;;;;;;16.60;13.97;;;12.70;99.00;;;;;;4914974;29;20829;-71
2022/04/16 07:18:48;;;;;;;16.40;12.40;;;12.70;99.00;;;;;;4912667;29;20456;-71
2022/04/16 07:21:14;;;;;;;18.87;14.50;;;12.70;99.00;;;;;;4894444;29;20536;-71
2022/04/16 07:23:42;;;;;;;18.20;14.23;;;12.70;99.10;;;;;;4922660;29;20574;-71
2022/04/16 07:26:08;;;;;;;17.93;14.00;;;12.70;99.10;;;;;;4914906;29;20532;-68
2022/04/16 07:28:39;;;;;;;18.17;14.17;;;12.70;99.10;;;;;;4883711;29;20475;-69
2022/04/16 07:31:05;;;;;;;17.93;13.90;;;12.70;99.10;;;;;;4916143;29;20508;-69
2022/04/16 07:33:32;;;;;;;17.20;13.93;;;12.70;99.10;;;;;;4915010;29;20519;-68
2022/04/16 07:35:58;;;;;;;17.10;13.97;;;12.70;99.10;;;;;;4913993;29;20475;-70
2022/04/16 07:38:27;;;;;;;15.47;12.63;;;12.70;99.10;;;;;;4932039;29;20953;-70
2022/04/16 07:40:55;;;;;;;19.73;15.17;;;12.70;99.10;;;;;;4916704;29;20455;-69
2022/04/16 07:43:24;;;;;;;17.03;13.20;;;12.70;99.10;;;;;;4898067;29;20515;-69
2022/04/16 07:45:49;;;;;;;16.93;14.03;;;12.70;99.20;;;;;;4908929;29;20812;-69
2022/04/16 07:48:16;;;;;;;16.00;12.87;;;12.70;99.20;;;;;;4917018;29;20467;-69
2022/04/16 07:50:41;;;;;;;17.17;13.67;;;12.70;99.20;;;;;;4915939;29;20431;-69
2022/04/16 07:53:07;;;;;;;17.03;13.50;;;12.70;99.20;;;;;;4910672;29;20450;-70
2022/04/16 07:55:39;;;;;;;17.00;13.60;;;12.70;99.20;;;;;;4915905;29;20252;-69
2022/04/16 07:58:07;;;;;;;15.33;12.80;;;12.80;99.30;;;;;;4896715;29;20479;-67
2022/04/16 08:00:35;;;;;;;16.90;13.90;;;12.70;99.20;;;;;;4916353;29;20432;-67
2022/04/16 08:03:01;;;;;;;14.33;12.70;;;12.80;99.30;;;;;;4916915;29;20448;-70
2022/04/16 08:05:27;;;;;;;15.70;12.50;;;12.80;99.30;;;;;;4917587;29;20423;-72
2022/04/16 08:07:54;;;;;;;15.33;12.00;;;12.80;99.30;;;;;;4901097;29;20913;-71
2022/04/16 08:10:20;;;;;;;15.10;12.87;;;12.80;99.30;;;;;;4917011;29;20440;-71
2022/04/16 08:12:48;;;;;;;17.70;14.00;;;12.80;99.60;;;;;;4916450;29;20566;-71
2022/04/16 08:15:17;;;;;;;15.10;12.80;;;12.80;99.20;;;;;;4902085;29;20422;-72
2022/04/16 08:17:43;;;;;;;14.97;12.90;;;12.80;99.20;;;;;;4900935;29;20455;-73
2022/04/16 08:20:09;;;;;;;16.77;13.03;;;12.80;99.20;;;;;;4918166;29;20181;-75
2022/04/16 08:22:35;;;;;;;15.93;13.27;;;12.80;99.20;;;;;;4914190;29;21003;-74
2022/04/16 08:27:48;;;;;;;16.53;12.57;;;12.80;99.20;;;;;;4906325;29;20816;-71
2022/04/16 08:30:15;;;;;;;14.50;11.60;;;12.90;99.20;;;;;;4913374;29;20459;-74
2022/04/16 08:32:45;;;;;;;14.10;12.60;;;12.90;99.10;;;;;;4919365;29;20546;-72
2022/04/16 08:35:15;;;;;;;14.70;12.10;;;12.90;99.10;;;;;;4901405;29;20443;-74
2022/04/16 08:37:45;;;;;;;15.63;12.10;;;12.90;99.00;;;;;;4916187;29;20855;-71
2022/04/16 08:40:15;;;;;;;14.70;12.37;;;13.00;99.10;;;;;;4918145;29;20422;-71
2022/04/16 08:42:51;;;;;;;13.10;11.70;;;12.90;99.00;;;;;;4898408;29;20462;-71
2022/04/16 08:45:19;;;;;;;14.93;11.73;;;13.00;99.00;;;;;;4899377;29;20409;-70
2022/04/16 08:47:46;;;;;;;15.10;11.93;;;13.00;99.00;;;;;;4882260;29;20489;-70
2022/04/16 08:50:14;;;;;;;11.77;10.20;;;13.00;99.00;;;;;;5017622;23;20918;-73
2022/04/16 08:52:42;;;;;;;13.40;11.40;;;13.00;98.90;;;;;;4934311;29;20473;-71
2022/04/16 08:55:12;;;;;;;11.77;10.30;;;13.10;99.00;;;;;;4954989;28;20901;-71
2022/04/16 08:57:41;;;;;;;13.70;12.03;;;13.10;98.90;;;;;;4953802;28;20472;-71
2022/04/16 09:00:13;;;;;;;13.23;11.17;;;13.10;98.80;;;;;;4954001;28;20874;-72
2022/04/16 09:02:54;;;;;;;11.87;10.20;;;13.20;98.80;;;;;;4954179;29;20434;-69
2022/04/16 09:05:20;;;;;;;12.83;10.70;;;13.20;98.80;;;;;;4925302;29;20466;-69
2022/04/16 09:07:52;;;;;;;12.83;10.20;;;13.20;98.70;;;;;;4954760;28;21015;-68
2022/04/16 09:10:19;;;;;;;11.77;9.60;;;13.30;98.80;;;;;;4949059;28;20530;-70
2022/04/16 09:12:54;;;;;;;13.73;11.60;;;13.30;98.70;;;;;;4952461;29;20420;-69
2022/04/16 09:15:21;;;;;;;11.83;10.40;;;13.30;98.60;;;;;;4947645;29;20900;-70
2022/04/16 09:18:00;;;;;;;13.40;10.57;;;13.40;98.60;;;;;;4949002;28;20462;-70
2022/04/16 09:20:41;;;;;;;11.30;9.47;;;13.40;98.50;;;;;;4963393;28;20468;-69
2022/04/16 09:23:27;;;;;;;11.53;9.70;;;13.40;98.40;;;;;;4943512;28;20471;-70
2022/04/16 09:26:00;;;;;;;11.17;10.00;;;13.40;98.30;;;;;;4948301;29;20442;-70
2022/04/16 09:28:26;;;;;;;12.67;9.90;;;13.50;98.20;;;;;;4937433;29;20477;-70
2022/04/16 09:30:56;;;;;;;11.33;9.57;;;13.50;98.10;;;;;;4939131;29;20452;-70
2022/04/16 09:33:37;;;;;;;9.80;8.80;;;13.50;98.00;;;;;;4947915;29;20432;-70
2022/04/16 09:36:03;;;;;;;10.60;9.50;;;13.60;98.00;;;;;;4954175;28;20440;-70
2022/04/16 09:38:38;;;;;;;9.73;8.73;;;13.60;97.80;;;;;;4947622;29;20463;-70
2022/04/16 09:41:08;;;;;;;10.37;8.47;;;13.60;97.70;;;;;;4934950;29;20462;-70
2022/04/16 09:43:39;;;;;;;10.40;9.40;;;13.60;97.60;;;;;;4936150;29;20533;-71
2022/04/16 09:46:12;;;;;;;9.63;8.00;;;13.70;97.60;;;;;;4953867;28;20490;-70
2022/04/16 09:48:41;;;;;;;10.60;8.83;;;13.70;97.60;;;;;;4952410;29;20460;-72
2022/04/16 09:51:10;;;;;;;10.17;9.17;;;13.70;97.50;;;;;;4953694;28;20436;-71
2022/04/16 09:53:39;;;;;;;9.57;8.60;;;13.80;97.40;;;;;;4946473;28;20491;-72
2022/04/16 09:56:14;;;;;;;9.40;8.50;;;13.80;97.40;;;;;;4934836;29;20476;-72
2022/04/16 09:58:49;;;;;;;8.67;7.77;;;13.80;97.30;;;;;;4949063;29;20940;-72
2022/04/16 10:01:16;;;;;;;8.60;7.77;;;13.90;97.30;;;;;;4953047;29;20403;-72
2022/04/16 10:03:46;;;;;;;11.80;7.87;;;13.90;97.20;;;;;;4954501;28;20403;-68
2022/04/16 10:06:15;;;;;;;10.70;7.97;;;13.90;97.20;;;;;;4936678;29;20427;-68
2022/04/16 10:08:41;;;;;;;9.57;8.13;;;14.00;97.20;;;;;;4952672;29;20524;-68
2022/04/16 10:11:16;;;;;;;8.43;7.53;;;14.00;97.10;;;;;;4952528;29;20420;-68
2022/04/16 10:13:53;;;;;;;8.50;7.33;;;14.10;97.10;;;;;;4952014;29;20857;-68
2022/04/16 10:16:34;;;;;;;7.90;7.10;;;14.10;97.00;;;;;;4952739;28;20455;-68
2022/04/16 10:19:00;;;;;;;7.93;7.13;;;14.10;97.00;;;;;;4952631;29;20493;-68
2022/04/16 10:21:33;;;;;;;8.30;7.13;;;14.10;96.90;;;;;;4952572;29;20422;-67
2022/04/16 10:24:02;;;;;;;8.63;6.57;;;14.20;96.90;;;;;;4947701;29;20532;-67
2022/04/16 10:26:39;;;;;;;7.90;7.10;;;14.20;96.80;;;;;;4942404;29;20547;-68
2022/04/16 10:29:06;;;;;;;8.27;7.20;;;14.20;96.70;;;;;;4951498;28;20966;-67
2022/04/16 10:31:38;;;;;;;8.00;6.80;;;14.30;96.70;;;;;;4946067;29;20421;-67
2022/04/16 10:34:08;;;;;;;7.77;6.93;;;14.30;96.60;;;;;;4928940;29;20418;-67
2022/04/16 10:36:38;;;;;;;7.50;6.80;;;14.30;96.50;;;;;;4950479;28;20859;-67
2022/04/16 10:39:19;;;;;;;7.70;6.80;;;14.40;96.40;;;;;;4951442;28;20438;-67
2022/04/16 10:41:56;;;;;;;7.20;6.43;;;14.40;96.40;;;;;;4950166;29;20423;-68
2022/04/16 10:44:26;;;;;;;8.27;7.47;;;14.50;96.30;;;;;;4951489;29;20801;-67
2022/04/16 10:46:55;;;;;;;7.00;6.30;;;14.50;96.20;;;;;;4950123;29;20513;-68
2022/04/16 10:49:26;;;;;;;7.93;7.13;;;14.50;96.10;;;;;;4949969;28;20480;-69
2022/04/16 10:51:55;;;;;;;7.10;6.40;;;14.50;96.20;;;;;;4950424;29;20456;-70
2022/04/16 10:54:36;;;;;;;7.90;6.67;;;14.60;96.20;;;;;;4950023;28;20449;-69
2022/04/16 10:57:07;;;;;;;6.50;5.90;;;14.60;96.20;;;;;;4933274;29;20953;-67
2022/04/16 10:59:39;;;;;;;7.40;6.70;;;14.70;96.20;;;;;;4941978;28;20460;-70
2022/04/16 11:02:24;;;;;;;7.23;6.53;;;14.70;96.20;;;;;;4938972;29;20511;-68
2022/04/16 11:05:01;;;;;;;8.43;6.90;;;14.80;96.10;;;;;;4934122;29;20968;-71
2022/04/16 11:07:28;;;;;;;7.03;6.33;;;14.80;96.10;;;;;;4939064;29;20456;-69
2022/04/16 11:09:59;;;;;;;7.20;6.50;;;14.80;96.10;;;;;;4933284;29;20404;-70
2022/04/16 11:12:26;;;;;;;8.27;7.00;;;14.90;96.50;;;;;;4934226;29;20396;-69
2022/04/16 11:15:00;;;;;;;7.00;6.30;;;14.90;96.10;;;;;;4949161;28;20422;-69
2022/04/16 11:17:31;;;;;;;6.33;5.70;;;15.00;96.10;;;;;;4933935;29;20975;-70
2022/04/16 11:20:07;;;;;;;7.17;6.23;;;15.00;96.10;;;;;;4946100;29;20631;-69
2022/04/16 11:22:38;;;;;;;6.83;5.83;;;15.00;96.00;;;;;;4953301;29;20445;-70
2022/04/16 11:25:07;;;;;;;6.73;6.00;;;15.10;96.00;;;;;;4953297;28;20446;-70
2022/04/16 11:34:14;;;;;;;7.10;6.40;;;15.10;95.90;;;;;;4952196;29;20498;-70
2022/04/16 11:36:10;;;;;;;8.40;7.60;;;15.20;95.70;;;;;;4947810;29;20418;-70
2022/04/16 11:38:40;;;;;;;7.20;6.03;;;15.20;95.70;;;;;;4951883;29;20442;-70
2022/04/16 11:41:11;;;;;;;6.70;6.00;;;15.30;95.70;;;;;;4954758;29;20407;-70
2022/04/16 11:43:47;;;;;;;7.93;7.23;;;15.30;95.70;;;;;;4920107;29;20432;-70
2022/04/16 11:46:15;;;;;;;7.23;5.90;;;15.30;95.70;;;;;;4948865;29;20563;-71
2022/04/16 11:48:46;;;;;;;6.97;6.30;;;15.40;95.60;;;;;;4944235;28;20460;-72
2022/04/16 11:51:17;;;;;;;7.40;5.90;;;15.40;95.60;;;;;;4939408;29;20416;-69
2022/04/16 11:53:51;;;;;;;7.57;6.80;;;15.40;95.50;;;;;;4941647;29;20855;-70
2022/04/16 11:56:29;;;;;;;7.10;6.40;;;15.50;95.50;;;;;;4951231;28;20471;-69
2022/04/16 11:58:55;;;;;;;5.73;5.13;;;15.50;95.40;;;;;;4939053;29;20433;-71
2022/04/16 12:01:26;;;;;;;6.77;6.13;;;15.60;95.30;;;;;;4951568;29;20529;-70
2022/04/16 12:03:52;;;;;;;7.13;6.43;;;15.60;95.30;;;;;;4947768;29;20439;-69
2022/04/16 12:06:18;;;;;;;6.53;5.83;;;15.60;95.20;;;;;;4935840;29;20445;-70
2022/04/16 12:08:46;;;;;;;6.90;6.20;;;15.70;95.30;;;;;;4937512;29;20460;-69
2022/04/16 12:11:18;;;;;;;7.10;5.97;;;15.70;95.20;;;;;;4937770;29;20462;-71
2022/04/16 12:13:44;;;;;;;7.77;6.53;;;15.70;95.10;;;;;;4935808;29;20461;-67
2022/04/16 12:16:15;;;;;;;6.70;6.10;;;15.80;95.10;;;;;;4936160;29;20417;-70
2022/04/16 12:18:48;;;;;;;7.30;6.60;;;15.80;95.00;;;;;;4952004;29;20526;-69
2022/04/16 12:21:17;;;;;;;6.90;6.20;;;15.80;94.90;;;;;;4955733;28;20879;-71
2022/04/16 12:23:48;;;;;;;9.27;5.80;;;15.80;94.80;;;;;;4939306;29;20463;-71
2022/04/16 12:26:17;;;;;;;8.90;5.50;;;15.90;94.80;;;;;;4937392;29;20427;-72
2022/04/16 12:28:56;;;;;;;8.10;6.73;;;15.90;94.70;;;;;;4928176;28;20477;-71
2022/04/16 12:31:29;;;;;;;7.40;6.70;;;16.00;94.70;;;;;;4955086;28;20481;-70
2022/04/16 12:33:56;;;;;;;7.20;6.50;;;16.00;94.60;;;;;;4973802;28;20902;-71
2022/04/16 12:36:24;;;;;;;7.00;6.30;;;16.00;94.50;;;;;;4963677;28;20449;-70
2022/04/16 12:38:54;;;;;;;6.40;5.70;;;16.10;94.60;;;;;;4955779;29;20414;-70
2022/04/16 12:41:26;;;;;;;6.73;6.13;;;16.10;94.50;;;;;;4955581;28;20428;-70
2022/04/16 12:43:53;;;;;;;7.37;6.30;;;16.10;94.40;;;;;;4955327;28;20411;-70
2022/04/16 12:46:22;;;;;;;6.77;6.17;;;16.20;94.40;;;;;;4954076;28;20461;-70
2022/04/16 12:48:50;;;;;;;7.20;6.37;;;16.20;94.40;;;;;;4962308;28;20462;-70
2022/04/16 12:51:16;;;;;;;7.60;6.30;;;16.20;94.30;;;;;;4958953;28;20439;-69
2022/04/16 12:53:43;;;;;;;6.73;6.13;;;16.30;94.30;;;;;;4962478;28;20192;-69
2022/04/16 12:56:11;;;;;;;6.50;5.80;;;16.30;94.20;;;;;;4963812;28;20476;-70
2022/04/16 12:58:37;;;;;;;6.73;5.77;;;16.30;94.50;;;;;;4973770;28;20414;-70
2022/04/16 13:01:02;;;;;;;6.63;6.03;;;16.40;94.10;;;;;;4973135;28;20884;-70
2022/04/16 13:03:29;;;;;;;6.70;6.10;;;16.40;94.00;;;;;;4957264;28;20435;-70
2022/04/16 13:05:55;;;;;;;6.93;6.27;;;16.50;94.00;;;;;;4941373;28;20750;-70